sensor_id;sensor_type;location;lat;lon;timestamp;temperature;humidity
5554;DHT22;2800;49.528;8.666;2022-07-24T00:00:05;21.50;1.00
5554;DHT22;2800;49.528;8.666;2022-07-24T00:02:31;21.40;1.00
5554;DHT22;2800;49.528;8.666;2022-07-24T00:04:56;21.50;1.00
5554;DHT22;2800;49.528;8.666;2022-07-24T00:07:22;21.50;1.00
5554;DHT22;2800;49.528;8.666;2022-07-24T00:09:48;21.50;1.00
5554;DHT22;2800;49.528;8.666;2022-07-24T00:12:13;21.50;1.00
5554;DHT22;2800;49.528;8.666;2022-07-24T00:14:39;21.50;1.00
5554;DHT22;2800;49.528;8.666;2022-07-24T00:17:05;21.50;1.00
5554;DHT22;2800;49.528;8.666;2022-07-24T00:19:30;21.50;1.00
5554;DHT22;2800;49.528;8.666;2022-07-24T00:21:56;21.50;1.00
5554;DHT22;2800;49.528;8.666;2022-07-24T00:24:22;24.10;1.00
5554;DHT22;2800;49.528;8.666;2022-07-24T00:26:48;21.40;1.00
5554;DHT22;2800;49.528;8.666;2022-07-24T00:29:13;21.40;1.00
5554;DHT22;2800;49.528;8.666;2022-07-24T00:31:39;21.20;1.00
5554;DHT22;2800;49.528;8.666;2022-07-24T00:34:04;21.20;1.00
5554;DHT22;2800;49.528;8.666;2022-07-24T00:36:30;21.20;1.00
5554;DHT22;2800;49.528;8.666;2022-07-24T00:38:55;21.10;1.00
5554;DHT22;2800;49.528;8.666;2022-07-24T00:41:21;21.00;1.00
5554;DHT22;2800;49.528;8.666;2022-07-24T00:46:32;20.90;1.00
5554;DHT22;2800;49.528;8.666;2022-07-24T00:48:58;20.90;1.00
5554;DHT22;2800;49.528;8.666;2022-07-24T00:51:24;20.90;1.00
5554;DHT22;2800;49.528;8.666;2022-07-24T00:53:49;20.80;1.00
5554;DHT22;2800;49.528;8.666;2022-07-24T00:56:15;20.60;1.00
5554;DHT22;2800;49.528;8.666;2022-07-24T00:58:41;20.60;1.00
5554;DHT22;2800;49.528;8.666;2022-07-24T01:01:06;20.60;1.00
5554;DHT22;2800;49.528;8.666;2022-07-24T01:03:32;20.70;1.00
5554;DHT22;2800;49.528;8.666;2022-07-24T01:05:58;20.40;1.00
5554;DHT22;2800;49.528;8.666;2022-07-24T01:08:24;20.50;1.00
5554;DHT22;2800;49.528;8.666;2022-07-24T01:10:50;20.60;1.00
5554;DHT22;2800;49.528;8.666;2022-07-24T01:13:16;20.70;1.00
5554;DHT22;2800;49.528;8.666;2022-07-24T01:15:42;20.80;1.00
5554;DHT22;2800;49.528;8.666;2022-07-24T01:18:08;20.70;1.00
5554;DHT22;2800;49.528;8.666;2022-07-24T01:20:37;20.70;1.00
5554;DHT22;2800;49.528;8.666;2022-07-24T01:23:03;20.60;1.00
5554;DHT22;2800;49.528;8.666;2022-07-24T01:25:29;20.50;1.00
5554;DHT22;2800;49.528;8.666;2022-07-24T01:27:55;20.40;1.00
5554;DHT22;2800;49.528;8.666;2022-07-24T01:30:21;20.40;1.00
5554;DHT22;2800;49.528;8.666;2022-07-24T01:32:46;20.40;1.00
5554;DHT22;2800;49.528;8.666;2022-07-24T01:35:12;20.30;1.00
5554;DHT22;2800;49.528;8.666;2022-07-24T01:37:37;20.30;1.00
5554;DHT22;2800;49.528;8.666;2022-07-24T01:40:03;20.30;1.00
5554;DHT22;2800;49.528;8.666;2022-07-24T01:42:29;20.30;1.00
5554;DHT22;2800;49.528;8.666;2022-07-24T01:44:55;20.30;1.00
5554;DHT22;2800;49.528;8.666;2022-07-24T01:47:20;20.20;1.00
5554;DHT22;2800;49.528;8.666;2022-07-24T01:49:46;20.40;1.00
5554;DHT22;2800;49.528;8.666;2022-07-24T01:52:12;20.40;1.00
5554;DHT22;2800;49.528;8.666;2022-07-24T01:54:37;20.20;1.00
5554;DHT22;2800;49.528;8.666;2022-07-24T01:57:03;20.20;1.00
5554;DHT22;2800;49.528;8.666;2022-07-24T01:59:29;20.20;1.00
5554;DHT22;2800;49.528;8.666;2022-07-24T02:01:54;20.10;1.00
5554;DHT22;2800;49.528;8.666;2022-07-24T02:04:20;20.00;1.00
5554;DHT22;2800;49.528;8.666;2022-07-24T02:06:45;20.00;1.00
5554;DHT22;2800;49.528;8.666;2022-07-24T02:09:11;20.00;1.00
5554;DHT22;2800;49.528;8.666;2022-07-24T02:11:37;20.00;1.00
5554;DHT22;2800;49.528;8.666;2022-07-24T02:14:02;20.00;99.90
5554;DHT22;2800;49.528;8.666;2022-07-24T02:16:28;20.00;99.90
5554;DHT22;2800;49.528;8.666;2022-07-24T02:18:53;20.00;99.90
5554;DHT22;2800;49.528;8.666;2022-07-24T02:21:19;20.00;1.00
5554;DHT22;2800;49.528;8.666;2022-07-24T02:23:44;20.00;1.00
5554;DHT22;2800;49.528;8.666;2022-07-24T02:26:10;20.10;1.00
5554;DHT22;2800;49.528;8.666;2022-07-24T02:28:36;19.80;1.00
5554;DHT22;2800;49.528;8.666;2022-07-24T02:31:01;19.80;10.80
5554;DHT22;2800;49.528;8.666;2022-07-24T02:33:27;19.70;13.60
5554;DHT22;2800;49.528;8.666;2022-07-24T02:35:52;19.70;38.80
5554;DHT22;2800;49.528;8.666;2022-07-24T02:38:18;19.70;40.30
5554;DHT22;2800;49.528;8.666;2022-07-24T02:40:43;19.70;57.30
5554;DHT22;2800;49.528;8.666;2022-07-24T02:43:09;19.70;82.80
5554;DHT22;2800;49.528;8.666;2022-07-24T02:45:34;19.60;99.90
5554;DHT22;2800;49.528;8.666;2022-07-24T02:48:00;19.70;99.90
5554;DHT22;2800;49.528;8.666;2022-07-24T02:50:30;19.50;99.90
5554;DHT22;2800;49.528;8.666;2022-07-24T02:52:56;19.50;99.90
5554;DHT22;2800;49.528;8.666;2022-07-24T02:55:22;19.50;99.90
5554;DHT22;2800;49.528;8.666;2022-07-24T02:57:47;19.50;99.90
5554;DHT22;2800;49.528;8.666;2022-07-24T03:00:15;19.50;99.90
5554;DHT22;2800;49.528;8.666;2022-07-24T03:02:42;19.40;99.90
5554;DHT22;2800;49.528;8.666;2022-07-24T03:05:08;19.40;99.90
5554;DHT22;2800;49.528;8.666;2022-07-24T03:07:34;19.30;99.90
5554;DHT22;2800;49.528;8.666;2022-07-24T03:10:03;19.30;99.90
5554;DHT22;2800;49.528;8.666;2022-07-24T03:12:29;19.30;99.90
5554;DHT22;2800;49.528;8.666;2022-07-24T03:14:54;19.30;99.90
5554;DHT22;2800;49.528;8.666;2022-07-24T03:17:20;19.30;99.90
5554;DHT22;2800;49.528;8.666;2022-07-24T03:19:45;19.30;99.90
5554;DHT22;2800;49.528;8.666;2022-07-24T03:22:11;19.30;99.90
5554;DHT22;2800;49.528;8.666;2022-07-24T03:24:36;19.30;99.90
5554;DHT22;2800;49.528;8.666;2022-07-24T03:27:02;19.30;99.90
5554;DHT22;2800;49.528;8.666;2022-07-24T03:29:28;19.40;99.90
5554;DHT22;2800;49.528;8.666;2022-07-24T03:31:53;19.40;99.90
5554;DHT22;2800;49.528;8.666;2022-07-24T03:34:19;19.30;99.90
5554;DHT22;2800;49.528;8.666;2022-07-24T03:36:44;19.30;99.90
5554;DHT22;2800;49.528;8.666;2022-07-24T03:39:10;19.10;99.90
5554;DHT22;2800;49.528;8.666;2022-07-24T03:41:35;19.00;99.90
5554;DHT22;2800;49.528;8.666;2022-07-24T03:44:01;18.90;99.90
5554;DHT22;2800;49.528;8.666;2022-07-24T03:46:27;18.80;99.90
5554;DHT22;2800;49.528;8.666;2022-07-24T03:48:54;18.70;1.00
5554;DHT22;2800;49.528;8.666;2022-07-24T03:51:20;18.70;1.00
5554;DHT22;2800;49.528;8.666;2022-07-24T03:53:46;18.80;99.90
5554;DHT22;2800;49.528;8.666;2022-07-24T03:56:11;18.70;99.90
5554;DHT22;2800;49.528;8.666;2022-07-24T03:58:37;18.70;99.90
5554;DHT22;2800;49.528;8.666;2022-07-24T04:01:02;18.80;99.90
5554;DHT22;2800;49.528;8.666;2022-07-24T04:03:28;18.80;99.90
5554;DHT22;2800;49.528;8.666;2022-07-24T04:05:54;18.80;99.90
5554;DHT22;2800;49.528;8.666;2022-07-24T04:08:19;18.70;99.90
5554;DHT22;2800;49.528;8.666;2022-07-24T04:10:45;18.90;99.90
5554;DHT22;2800;49.528;8.666;2022-07-24T04:13:10;19.00;99.90
5554;DHT22;2800;49.528;8.666;2022-07-24T04:15:36;19.00;99.90
5554;DHT22;2800;49.528;8.666;2022-07-24T04:18:02;18.90;99.90
5554;DHT22;2800;49.528;8.666;2022-07-24T04:20:27;19.00;99.90
5554;DHT22;2800;49.528;8.666;2022-07-24T04:22:53;19.00;99.90
5554;DHT22;2800;49.528;8.666;2022-07-24T04:25:19;19.10;99.90
5554;DHT22;2800;49.528;8.666;2022-07-24T04:27:44;19.00;99.90
5554;DHT22;2800;49.528;8.666;2022-07-24T04:30:11;19.00;99.90
5554;DHT22;2800;49.528;8.666;2022-07-24T04:32:37;19.00;99.90
5554;DHT22;2800;49.528;8.666;2022-07-24T04:35:04;19.10;99.90
5554;DHT22;2800;49.528;8.666;2022-07-24T04:37:29;19.10;99.90
5554;DHT22;2800;49.528;8.666;2022-07-24T04:39:55;19.10;99.90
5554;DHT22;2800;49.528;8.666;2022-07-24T04:42:21;19.10;99.90
5554;DHT22;2800;49.528;8.666;2022-07-24T04:44:46;19.20;99.90
5554;DHT22;2800;49.528;8.666;2022-07-24T04:47:12;19.10;99.90
5554;DHT22;2800;49.528;8.666;2022-07-24T04:49:37;19.00;99.90
5554;DHT22;2800;49.528;8.666;2022-07-24T04:52:03;21.30;99.90
5554;DHT22;2800;49.528;8.666;2022-07-24T04:54:28;18.90;99.90
5554;DHT22;2800;49.528;8.666;2022-07-24T04:56:54;18.80;99.90
5554;DHT22;2800;49.528;8.666;2022-07-24T04:59:20;18.90;99.90
5554;DHT22;2800;49.528;8.666;2022-07-24T05:01:45;18.70;99.90
5554;DHT22;2800;49.528;8.666;2022-07-24T05:04:11;18.70;99.90
5554;DHT22;2800;49.528;8.666;2022-07-24T05:06:39;18.80;99.90
5554;DHT22;2800;49.528;8.666;2022-07-24T05:09:04;19.00;99.90
5554;DHT22;2800;49.528;8.666;2022-07-24T05:11:30;19.10;99.90
5554;DHT22;2800;49.528;8.666;2022-07-24T05:13:55;19.20;99.90
5554;DHT22;2800;49.528;8.666;2022-07-24T05:16:21;19.30;99.90
5554;DHT22;2800;49.528;8.666;2022-07-24T05:18:46;19.50;99.90
5554;DHT22;2800;49.528;8.666;2022-07-24T05:21:12;19.40;99.90
5554;DHT22;2800;49.528;8.666;2022-07-24T05:23:39;19.40;99.90
5554;DHT22;2800;49.528;8.666;2022-07-24T05:26:05;19.50;99.90
5554;DHT22;2800;49.528;8.666;2022-07-24T05:28:32;19.50;99.90
5554;DHT22;2800;49.528;8.666;2022-07-24T05:30:58;19.70;99.90
5554;DHT22;2800;49.528;8.666;2022-07-24T05:33:23;19.80;99.90
5554;DHT22;2800;49.528;8.666;2022-07-24T05:35:49;20.00;99.90
5554;DHT22;2800;49.528;8.666;2022-07-24T05:38:15;20.00;99.90
5554;DHT22;2800;49.528;8.666;2022-07-24T05:40:40;20.00;99.90
5554;DHT22;2800;49.528;8.666;2022-07-24T05:43:06;20.10;99.90
5554;DHT22;2800;49.528;8.666;2022-07-24T05:45:31;20.10;99.90
5554;DHT22;2800;49.528;8.666;2022-07-24T05:47:57;20.20;99.90
5554;DHT22;2800;49.528;8.666;2022-07-24T05:50:22;20.20;99.90
5554;DHT22;2800;49.528;8.666;2022-07-24T05:52:48;20.20;99.90
5554;DHT22;2800;49.528;8.666;2022-07-24T05:55:14;20.50;99.90
5554;DHT22;2800;49.528;8.666;2022-07-24T05:57:39;20.70;99.90
5554;DHT22;2800;49.528;8.666;2022-07-24T06:00:05;20.90;99.90
5554;DHT22;2800;49.528;8.666;2022-07-24T06:02:31;21.00;99.90
5554;DHT22;2800;49.528;8.666;2022-07-24T06:04:56;21.00;99.90
5554;DHT22;2800;49.528;8.666;2022-07-24T06:07:22;21.10;99.90
5554;DHT22;2800;49.528;8.666;2022-07-24T06:09:47;21.10;99.90
5554;DHT22;2800;49.528;8.666;2022-07-24T06:12:13;21.00;99.90
5554;DHT22;2800;49.528;8.666;2022-07-24T06:14:38;21.00;99.90
5554;DHT22;2800;49.528;8.666;2022-07-24T06:17:04;21.10;99.90
5554;DHT22;2800;49.528;8.666;2022-07-24T06:19:30;21.20;99.90
5554;DHT22;2800;49.528;8.666;2022-07-24T06:21:55;21.40;99.90
5554;DHT22;2800;49.528;8.666;2022-07-24T06:24:21;21.50;99.90
5554;DHT22;2800;49.528;8.666;2022-07-24T06:26:46;21.70;99.90
5554;DHT22;2800;49.528;8.666;2022-07-24T06:29:12;21.80;99.90
5554;DHT22;2800;49.528;8.666;2022-07-24T06:31:37;21.90;99.90
5554;DHT22;2800;49.528;8.666;2022-07-24T06:34:03;22.00;99.90
5554;DHT22;2800;49.528;8.666;2022-07-24T06:36:28;22.20;99.90
5554;DHT22;2800;49.528;8.666;2022-07-24T06:38:54;22.40;99.90
5554;DHT22;2800;49.528;8.666;2022-07-24T06:41:19;22.80;99.90
5554;DHT22;2800;49.528;8.666;2022-07-24T06:43:45;23.20;99.90
5554;DHT22;2800;49.528;8.666;2022-07-24T06:46:11;23.60;99.90
5554;DHT22;2800;49.528;8.666;2022-07-24T06:48:36;24.00;99.90
5554;DHT22;2800;49.528;8.666;2022-07-24T06:51:04;24.10;99.90
5554;DHT22;2800;49.528;8.666;2022-07-24T06:53:29;24.20;99.90
5554;DHT22;2800;49.528;8.666;2022-07-24T06:55:55;23.70;99.90
5554;DHT22;2800;49.528;8.666;2022-07-24T06:58:21;23.60;99.90
5554;DHT22;2800;49.528;8.666;2022-07-24T07:00:47;23.90;99.90
5554;DHT22;2800;49.528;8.666;2022-07-24T07:03:14;24.30;99.90
5554;DHT22;2800;49.528;8.666;2022-07-24T07:05:40;24.10;99.90
5554;DHT22;2800;49.528;8.666;2022-07-24T07:08:06;24.30;99.90
5554;DHT22;2800;49.528;8.666;2022-07-24T07:10:31;23.90;99.90
5554;DHT22;2800;49.528;8.666;2022-07-24T07:12:57;24.00;99.90
5554;DHT22;2800;49.528;8.666;2022-07-24T07:15:23;24.10;99.90
5554;DHT22;2800;49.528;8.666;2022-07-24T07:17:49;24.30;99.90
5554;DHT22;2800;49.528;8.666;2022-07-24T07:20:14;24.30;99.90
5554;DHT22;2800;49.528;8.666;2022-07-24T07:22:41;24.90;99.90
5554;DHT22;2800;49.528;8.666;2022-07-24T07:25:07;25.20;99.90
5554;DHT22;2800;49.528;8.666;2022-07-24T07:27:34;25.20;99.90
5554;DHT22;2800;49.528;8.666;2022-07-24T07:30:00;25.40;99.90
5554;DHT22;2800;49.528;8.666;2022-07-24T07:32:26;25.60;99.90
5554;DHT22;2800;49.528;8.666;2022-07-24T07:34:51;25.80;99.90
5554;DHT22;2800;49.528;8.666;2022-07-24T07:37:17;25.50;99.90
5554;DHT22;2800;49.528;8.666;2022-07-24T07:39:42;25.90;99.90
5554;DHT22;2800;49.528;8.666;2022-07-24T07:42:08;25.70;99.90
5554;DHT22;2800;49.528;8.666;2022-07-24T07:44:33;25.90;99.90
5554;DHT22;2800;49.528;8.666;2022-07-24T07:46:59;26.20;99.90
5554;DHT22;2800;49.528;8.666;2022-07-24T07:49:25;26.10;99.90
5554;DHT22;2800;49.528;8.666;2022-07-24T07:51:50;26.10;99.90
5554;DHT22;2800;49.528;8.666;2022-07-24T07:54:17;26.20;99.90
5554;DHT22;2800;49.528;8.666;2022-07-24T07:56:43;26.40;99.90
5554;DHT22;2800;49.528;8.666;2022-07-24T07:59:08;26.90;99.90
5554;DHT22;2800;49.528;8.666;2022-07-24T08:01:34;27.00;99.90
5554;DHT22;2800;49.528;8.666;2022-07-24T08:04:00;27.40;99.90
5554;DHT22;2800;49.528;8.666;2022-07-24T08:06:26;27.70;99.90
5554;DHT22;2800;49.528;8.666;2022-07-24T08:08:52;27.70;99.90
5554;DHT22;2800;49.528;8.666;2022-07-24T08:11:18;27.90;99.90
5554;DHT22;2800;49.528;8.666;2022-07-24T08:13:44;28.00;99.90
5554;DHT22;2800;49.528;8.666;2022-07-24T08:16:10;28.20;99.90
5554;DHT22;2800;49.528;8.666;2022-07-24T08:18:35;28.60;99.90
5554;DHT22;2800;49.528;8.666;2022-07-24T08:21:01;28.80;99.90
5554;DHT22;2800;49.528;8.666;2022-07-24T08:23:26;29.10;99.90
5554;DHT22;2800;49.528;8.666;2022-07-24T08:25:52;29.00;99.90
5554;DHT22;2800;49.528;8.666;2022-07-24T08:28:18;29.20;99.90
5554;DHT22;2800;49.528;8.666;2022-07-24T08:30:43;29.10;99.90
5554;DHT22;2800;49.528;8.666;2022-07-24T08:33:09;29.20;99.90
5554;DHT22;2800;49.528;8.666;2022-07-24T08:35:35;29.30;99.90
5554;DHT22;2800;49.528;8.666;2022-07-24T08:38:01;29.20;99.90
5554;DHT22;2800;49.528;8.666;2022-07-24T08:40:33;29.40;99.90
5554;DHT22;2800;49.528;8.666;2022-07-24T08:43:01;29.60;99.90
5554;DHT22;2800;49.528;8.666;2022-07-24T08:45:28;29.80;99.90
5554;DHT22;2800;49.528;8.666;2022-07-24T08:47:55;30.00;99.90
5554;DHT22;2800;49.528;8.666;2022-07-24T08:50:20;30.30;99.90
5554;DHT22;2800;49.528;8.666;2022-07-24T08:52:46;30.20;99.90
5554;DHT22;2800;49.528;8.666;2022-07-24T08:55:12;29.90;99.90
5554;DHT22;2800;49.528;8.666;2022-07-24T08:57:38;30.10;99.90
5554;DHT22;2800;49.528;8.666;2022-07-24T09:00:04;29.80;99.90
5554;DHT22;2800;49.528;8.666;2022-07-24T09:02:30;30.10;99.90
5554;DHT22;2800;49.528;8.666;2022-07-24T09:05:00;30.50;99.90
5554;DHT22;2800;49.528;8.666;2022-07-24T09:07:28;30.90;99.90
5554;DHT22;2800;49.528;8.666;2022-07-24T09:12:31;31.30;99.90
5554;DHT22;2800;49.528;8.666;2022-07-24T09:14:59;31.30;99.90
5554;DHT22;2800;49.528;8.666;2022-07-24T09:17:25;31.30;99.90
5554;DHT22;2800;49.528;8.666;2022-07-24T09:19:58;31.20;99.90
5554;DHT22;2800;49.528;8.666;2022-07-24T09:22:44;31.10;99.90
5554;DHT22;2800;49.528;8.666;2022-07-24T09:25:13;30.90;99.90
5554;DHT22;2800;49.528;8.666;2022-07-24T09:27:54;31.50;99.90
5554;DHT22;2800;49.528;8.666;2022-07-24T09:30:41;32.20;99.90
5554;DHT22;2800;49.528;8.666;2022-07-24T09:35:50;32.10;99.90
5554;DHT22;2800;49.528;8.666;2022-07-24T09:38:21;31.30;99.90
5554;DHT22;2800;49.528;8.666;2022-07-24T09:40:51;31.80;99.90
5554;DHT22;2800;49.528;8.666;2022-07-24T09:43:23;31.10;99.90
5554;DHT22;2800;49.528;8.666;2022-07-24T09:46:05;31.60;99.90
5554;DHT22;2800;49.528;8.666;2022-07-24T09:48:39;31.90;99.90
5554;DHT22;2800;49.528;8.666;2022-07-24T09:51:10;31.70;99.90
5554;DHT22;2800;49.528;8.666;2022-07-24T09:53:36;32.20;99.90
5554;DHT22;2800;49.528;8.666;2022-07-24T09:56:06;33.20;99.90
5554;DHT22;2800;49.528;8.666;2022-07-24T09:58:35;33.30;99.90
5554;DHT22;2800;49.528;8.666;2022-07-24T10:01:01;33.40;99.90
5554;DHT22;2800;49.528;8.666;2022-07-24T10:03:30;33.30;99.90
5554;DHT22;2800;49.528;8.666;2022-07-24T10:06:04;33.30;99.90
5554;DHT22;2800;49.528;8.666;2022-07-24T10:08:32;33.30;99.90
5554;DHT22;2800;49.528;8.666;2022-07-24T10:10:58;32.90;99.90
5554;DHT22;2800;49.528;8.666;2022-07-24T10:13:25;32.40;99.90
5554;DHT22;2800;49.528;8.666;2022-07-24T10:16:22;33.00;99.90
5554;DHT22;2800;49.528;8.666;2022-07-24T10:19:01;33.50;99.90
5554;DHT22;2800;49.528;8.666;2022-07-24T10:21:34;33.90;99.90
5554;DHT22;2800;49.528;8.666;2022-07-24T10:26:44;33.90;99.90
5554;DHT22;2800;49.528;8.666;2022-07-24T10:34:13;33.50;99.90
5554;DHT22;2800;49.528;8.666;2022-07-24T10:36:48;34.30;99.90
5554;DHT22;2800;49.528;8.666;2022-07-24T10:39:22;34.50;99.90
5554;DHT22;2800;49.528;8.666;2022-07-24T10:42:05;34.90;99.90
5554;DHT22;2800;49.528;8.666;2022-07-24T10:44:31;35.10;99.90
5554;DHT22;2800;49.528;8.666;2022-07-24T10:47:05;34.60;99.90
5554;DHT22;2800;49.528;8.666;2022-07-24T10:49:35;34.70;99.90
5554;DHT22;2800;49.528;8.666;2022-07-24T10:52:01;34.70;99.90
5554;DHT22;2800;49.528;8.666;2022-07-24T10:54:27;35.30;99.90
5554;DHT22;2800;49.528;8.666;2022-07-24T10:56:53;35.80;99.90
5554;DHT22;2800;49.528;8.666;2022-07-24T10:59:32;34.90;99.90
5554;DHT22;2800;49.528;8.666;2022-07-24T11:05:22;34.30;99.90
5554;DHT22;2800;49.528;8.666;2022-07-24T11:10:51;34.10;99.90
5554;DHT22;2800;49.528;8.666;2022-07-24T11:18:40;34.30;99.90
5554;DHT22;2800;49.528;8.666;2022-07-24T11:21:06;34.80;99.90
5554;DHT22;2800;49.528;8.666;2022-07-24T11:23:32;35.70;99.90
5554;DHT22;2800;49.528;8.666;2022-07-24T11:26:35;34.70;99.90
5554;DHT22;2800;49.528;8.666;2022-07-24T11:31:42;35.50;99.90
5554;DHT22;2800;49.528;8.666;2022-07-24T11:34:08;36.40;99.90
5554;DHT22;2800;49.528;8.666;2022-07-24T11:36:34;36.50;99.90
5554;DHT22;2800;49.528;8.666;2022-07-24T11:39:00;37.10;99.90
5554;DHT22;2800;49.528;8.666;2022-07-24T11:41:27;35.80;99.90
5554;DHT22;2800;49.528;8.666;2022-07-24T11:43:53;35.50;99.90
5554;DHT22;2800;49.528;8.666;2022-07-24T11:46:35;35.30;99.90
5554;DHT22;2800;49.528;8.666;2022-07-24T11:49:05;36.70;99.90
5554;DHT22;2800;49.528;8.666;2022-07-24T11:51:32;37.10;99.90
5554;DHT22;2800;49.528;8.666;2022-07-24T11:53:58;37.40;99.90
5554;DHT22;2800;49.528;8.666;2022-07-24T11:56:23;37.70;99.90
5554;DHT22;2800;49.528;8.666;2022-07-24T11:58:49;38.50;99.90
5554;DHT22;2800;49.528;8.666;2022-07-24T12:01:22;38.00;99.90
5554;DHT22;2800;49.528;8.666;2022-07-24T12:03:52;37.50;99.90
5554;DHT22;2800;49.528;8.666;2022-07-24T12:06:20;36.00;99.90
5554;DHT22;2800;49.528;8.666;2022-07-24T12:08:46;36.70;99.90
5554;DHT22;2800;49.528;8.666;2022-07-24T12:11:22;37.10;99.90
5554;DHT22;2800;49.528;8.666;2022-07-24T12:13:48;37.70;99.90
5554;DHT22;2800;49.528;8.666;2022-07-24T12:16:25;37.90;99.90
5554;DHT22;2800;49.528;8.666;2022-07-24T12:18:51;37.90;99.90
5554;DHT22;2800;49.528;8.666;2022-07-24T12:21:17;37.10;99.90
5554;DHT22;2800;49.528;8.666;2022-07-24T12:23:46;37.00;99.90
5554;DHT22;2800;49.528;8.666;2022-07-24T12:26:11;38.10;99.90
5554;DHT22;2800;49.528;8.666;2022-07-24T12:28:37;38.40;99.90
5554;DHT22;2800;49.528;8.666;2022-07-24T12:31:07;38.30;99.90
5554;DHT22;2800;49.528;8.666;2022-07-24T12:33:36;37.80;99.90
5554;DHT22;2800;49.528;8.666;2022-07-24T12:36:06;38.10;99.90
5554;DHT22;2800;49.528;8.666;2022-07-24T12:38:43;38.40;99.90
5554;DHT22;2800;49.528;8.666;2022-07-24T12:41:16;36.90;99.90
5554;DHT22;2800;49.528;8.666;2022-07-24T12:43:59;37.50;99.90
5554;DHT22;2800;49.528;8.666;2022-07-24T12:46:38;38.10;99.90
5554;DHT22;2800;49.528;8.666;2022-07-24T12:49:07;38.50;99.90
5554;DHT22;2800;49.528;8.666;2022-07-24T12:54:22;37.80;99.90
5554;DHT22;2800;49.528;8.666;2022-07-24T12:56:50;36.10;99.90
5554;DHT22;2800;49.528;8.666;2022-07-24T12:59:23;36.80;99.90
5554;DHT22;2800;49.528;8.666;2022-07-24T13:01:51;36.30;99.90
5554;DHT22;2800;49.528;8.666;2022-07-24T13:04:19;37.20;99.90
5554;DHT22;2800;49.528;8.666;2022-07-24T13:06:50;38.20;99.90
5554;DHT22;2800;49.528;8.666;2022-07-24T13:09:17;37.80;99.90
5554;DHT22;2800;49.528;8.666;2022-07-24T13:11:45;36.90;99.90
5554;DHT22;2800;49.528;8.666;2022-07-24T13:14:11;36.80;99.90
5554;DHT22;2800;49.528;8.666;2022-07-24T13:16:39;37.50;99.90
5554;DHT22;2800;49.528;8.666;2022-07-24T13:19:06;37.30;99.90
5554;DHT22;2800;49.528;8.666;2022-07-24T13:21:32;38.40;99.90
5554;DHT22;2800;49.528;8.666;2022-07-24T13:23:58;37.90;99.90
5554;DHT22;2800;49.528;8.666;2022-07-24T13:26:24;37.50;99.90
5554;DHT22;2800;49.528;8.666;2022-07-24T13:28:50;38.90;99.90
5554;DHT22;2800;49.528;8.666;2022-07-24T13:31:16;38.80;99.90
5554;DHT22;2800;49.528;8.666;2022-07-24T13:33:45;38.70;99.90
5554;DHT22;2800;49.528;8.666;2022-07-24T13:36:11;38.80;99.90
5554;DHT22;2800;49.528;8.666;2022-07-24T13:38:37;38.20;99.90
5554;DHT22;2800;49.528;8.666;2022-07-24T13:41:03;38.20;99.90
5554;DHT22;2800;49.528;8.666;2022-07-24T13:43:28;38.10;99.90
5554;DHT22;2800;49.528;8.666;2022-07-24T13:45:54;37.80;99.90
5554;DHT22;2800;49.528;8.666;2022-07-24T13:48:19;37.90;99.90
5554;DHT22;2800;49.528;8.666;2022-07-24T13:50:45;37.20;99.90
5554;DHT22;2800;49.528;8.666;2022-07-24T13:53:10;37.50;99.90
5554;DHT22;2800;49.528;8.666;2022-07-24T13:55:36;38.20;99.90
5554;DHT22;2800;49.528;8.666;2022-07-24T13:58:02;38.50;99.90
5554;DHT22;2800;49.528;8.666;2022-07-24T14:00:27;39.00;99.90
5554;DHT22;2800;49.528;8.666;2022-07-24T14:02:53;38.00;99.90
5554;DHT22;2800;49.528;8.666;2022-07-24T14:05:21;38.40;99.90
5554;DHT22;2800;49.528;8.666;2022-07-24T14:07:47;37.90;99.90
5554;DHT22;2800;49.528;8.666;2022-07-24T14:10:13;37.00;99.90
5554;DHT22;2800;49.528;8.666;2022-07-24T14:12:39;36.00;99.90
5554;DHT22;2800;49.528;8.666;2022-07-24T14:15:05;36.00;99.90
5554;DHT22;2800;49.528;8.666;2022-07-24T14:17:32;35.90;99.90
5554;DHT22;2800;49.528;8.666;2022-07-24T14:19:57;36.60;99.90
5554;DHT22;2800;49.528;8.666;2022-07-24T14:22:23;36.80;99.90
5554;DHT22;2800;49.528;8.666;2022-07-24T14:24:48;37.20;99.90
5554;DHT22;2800;49.528;8.666;2022-07-24T14:27:14;37.80;99.90
5554;DHT22;2800;49.528;8.666;2022-07-24T14:29:39;38.20;99.90
5554;DHT22;2800;49.528;8.666;2022-07-24T14:32:05;39.10;99.90
5554;DHT22;2800;49.528;8.666;2022-07-24T14:34:31;38.10;99.90
5554;DHT22;2800;49.528;8.666;2022-07-24T14:36:56;37.00;99.90
5554;DHT22;2800;49.528;8.666;2022-07-24T14:39:22;37.00;99.90
5554;DHT22;2800;49.528;8.666;2022-07-24T14:41:47;35.90;99.90
5554;DHT22;2800;49.528;8.666;2022-07-24T14:44:13;36.50;99.90
5554;DHT22;2800;49.528;8.666;2022-07-24T14:46:40;37.40;99.90
5554;DHT22;2800;49.528;8.666;2022-07-24T14:49:07;37.80;99.90
5554;DHT22;2800;49.528;8.666;2022-07-24T14:51:32;37.30;99.90
5554;DHT22;2800;49.528;8.666;2022-07-24T14:53:58;38.00;99.90
5554;DHT22;2800;49.528;8.666;2022-07-24T14:56:23;37.00;99.90
5554;DHT22;2800;49.528;8.666;2022-07-24T14:58:49;37.80;99.90
5554;DHT22;2800;49.528;8.666;2022-07-24T15:01:14;36.20;99.90
5554;DHT22;2800;49.528;8.666;2022-07-24T15:03:40;36.20;99.90
5554;DHT22;2800;49.528;8.666;2022-07-24T15:06:06;37.00;99.90
5554;DHT22;2800;49.528;8.666;2022-07-24T15:08:32;36.80;99.90
5554;DHT22;2800;49.528;8.666;2022-07-24T15:10:57;35.80;99.90
5554;DHT22;2800;49.528;8.666;2022-07-24T15:13:23;35.80;99.90
5554;DHT22;2800;49.528;8.666;2022-07-24T15:15:48;35.50;99.90
5554;DHT22;2800;49.528;8.666;2022-07-24T15:18:15;35.70;99.90
5554;DHT22;2800;49.528;8.666;2022-07-24T15:20:41;36.50;99.90
5554;DHT22;2800;49.528;8.666;2022-07-24T15:23:06;35.80;99.90
5554;DHT22;2800;49.528;8.666;2022-07-24T15:25:32;35.60;99.90
5554;DHT22;2800;49.528;8.666;2022-07-24T15:33:55;34.00;99.90
5554;DHT22;2800;49.528;8.666;2022-07-24T15:36:21;34.20;99.90
5554;DHT22;2800;49.528;8.666;2022-07-24T15:38:46;34.70;99.90
5554;DHT22;2800;49.528;8.666;2022-07-24T15:41:12;34.40;99.90
5554;DHT22;2800;49.528;8.666;2022-07-24T15:43:37;34.10;99.90
5554;DHT22;2800;49.528;8.666;2022-07-24T15:46:03;33.90;99.90
5554;DHT22;2800;49.528;8.666;2022-07-24T15:48:29;33.60;99.90
5554;DHT22;2800;49.528;8.666;2022-07-24T15:50:54;33.70;99.90
5554;DHT22;2800;49.528;8.666;2022-07-24T15:53:19;33.30;99.90
5554;DHT22;2800;49.528;8.666;2022-07-24T15:55:45;33.20;99.90
5554;DHT22;2800;49.528;8.666;2022-07-24T15:58:11;33.10;99.90
5554;DHT22;2800;49.528;8.666;2022-07-24T16:00:36;33.10;99.90
5554;DHT22;2800;49.528;8.666;2022-07-24T16:03:02;32.80;99.90
5554;DHT22;2800;49.528;8.666;2022-07-24T16:05:27;32.50;99.90
5554;DHT22;2800;49.528;8.666;2022-07-24T16:07:54;32.70;99.90
5554;DHT22;2800;49.528;8.666;2022-07-24T16:10:20;32.60;99.90
5554;DHT22;2800;49.528;8.666;2022-07-24T16:12:47;32.70;99.90
5554;DHT22;2800;49.528;8.666;2022-07-24T16:15:13;32.70;99.90
5554;DHT22;2800;49.528;8.666;2022-07-24T16:17:40;33.00;99.90
5554;DHT22;2800;49.528;8.666;2022-07-24T16:20:07;32.50;99.90
5554;DHT22;2800;49.528;8.666;2022-07-24T16:22:34;32.80;99.90
5554;DHT22;2800;49.528;8.666;2022-07-24T16:25:00;32.50;99.90
5554;DHT22;2800;49.528;8.666;2022-07-24T16:27:26;32.80;99.90
5554;DHT22;2800;49.528;8.666;2022-07-24T16:29:52;32.80;99.90
5554;DHT22;2800;49.528;8.666;2022-07-24T16:32:18;32.90;99.90
5554;DHT22;2800;49.528;8.666;2022-07-24T16:34:44;32.80;99.90
5554;DHT22;2800;49.528;8.666;2022-07-24T16:37:09;32.90;99.90
5554;DHT22;2800;49.528;8.666;2022-07-24T16:39:35;32.10;99.90